createdAt,value
2022-12-12T00:00:05.357Z,3.3
2022-12-12T00:02:03.240Z,3.1
2022-12-12T00:04:04.752Z,4.8
2022-12-12T00:06:04.542Z,2.6
2022-12-12T00:08:03.243Z,2.7
2022-12-12T00:10:02.980Z,3.0
2022-12-12T00:12:03.124Z,3.1
2022-12-12T00:14:04.063Z,3.3
2022-12-12T00:16:05.414Z,3.2
2022-12-12T00:18:03.495Z,2.7
2022-12-12T00:20:04.525Z,3.3
2022-12-12T00:22:02.890Z,3.3
2022-12-12T00:24:03.113Z,3.7
2022-12-12T00:26:06.115Z,3.1
2022-12-12T00:28:02.887Z,3.1
2022-12-12T00:30:04.787Z,3.6
2022-12-12T00:32:03.193Z,4.2
2022-12-12T00:34:03.776Z,3.0
2022-12-12T00:36:03.482Z,2.4
2022-12-12T00:38:02.958Z,2.4
2022-12-12T00:40:04.220Z,2.9
2022-12-12T00:42:03.754Z,3.5
2022-12-12T00:44:03.924Z,2.6
2022-12-12T00:46:04.073Z,3.4
2022-12-12T00:48:03.731Z,2.6
2022-12-12T00:50:03.212Z,3.9
2022-12-12T00:52:02.906Z,4.0
2022-12-12T00:54:03.742Z,3.4
2022-12-12T00:56:03.753Z,4.0
2022-12-12T00:58:03.728Z,3.3
2022-12-12T01:00:03.640Z,3.5
2022-12-12T01:02:03.621Z,4.1
2022-12-12T01:04:04.901Z,3.8
2022-12-12T01:06:05.169Z,3.2
2022-12-12T01:08:04.106Z,3.3
2022-12-12T01:10:03.383Z,3.5
2022-12-12T01:12:03.710Z,4.2
2022-12-12T01:14:02.981Z,4.1
2022-12-12T01:16:04.369Z,3.7
2022-12-12T01:18:02.956Z,4.1
2022-12-12T01:20:03.779Z,5.5
2022-12-12T01:22:02.915Z,4.3
2022-12-12T01:24:02.895Z,5.2
2022-12-12T01:26:06.195Z,4.8
2022-12-12T01:28:04.315Z,4.5
2022-12-12T01:30:03.250Z,5.8
2022-12-12T01:32:04.045Z,5.1
2022-12-12T01:34:02.721Z,5.1
2022-12-12T01:36:04.289Z,5.4
2022-12-12T01:38:02.912Z,6.7
2022-12-12T01:40:03.207Z,7.6
2022-12-12T01:42:02.944Z,6.1
2022-12-12T01:44:06.098Z,7.6
2022-12-12T01:46:21.986Z,5.4
2022-12-12T01:48:05.360Z,8.0
2022-12-12T01:50:06.444Z,7.6
2022-12-12T01:52:09.234Z,6.2
2022-12-12T01:54:08.169Z,5.7
2022-12-12T01:56:08.619Z,6.7
2022-12-12T01:58:04.063Z,6.3
2022-12-12T02:00:06.983Z,5.1
2022-12-12T02:02:03.407Z,5.8
2022-12-12T02:04:04.211Z,5.5
2022-12-12T02:06:06.680Z,6.9
2022-12-12T02:08:06.731Z,5.2
2022-12-12T02:10:03.586Z,5.5
2022-12-12T02:12:02.936Z,7.9
2022-12-12T02:14:03.576Z,4.8
2022-12-12T02:16:15.877Z,4.4
2022-12-12T02:18:12.718Z,7.2
2022-12-12T02:20:21.951Z,6.1
2022-12-12T02:22:10.843Z,5.4
2022-12-12T02:24:25.965Z,3.7
2022-12-12T02:26:22.138Z,4.6
2022-12-12T02:28:21.811Z,3.9
2022-12-12T02:30:09.362Z,4.5
2022-12-12T02:32:11.415Z,4.6
2022-12-12T02:34:10.955Z,4.9
2022-12-12T02:36:12.134Z,4.4
2022-12-12T02:38:11.902Z,4.6
2022-12-12T02:40:12.721Z,4.9
2022-12-12T02:42:06.996Z,3.8
2022-12-12T02:44:12.560Z,3.6
2022-12-12T02:46:08.465Z,3.6
2022-12-12T02:48:08.942Z,4.8
2022-12-12T02:50:07.270Z,4.7
2022-12-12T02:52:03.854Z,4.4
2022-12-12T02:54:06.439Z,4.8
2022-12-12T02:56:06.626Z,4.8
2022-12-12T02:58:04.986Z,5.2
2022-12-12T03:00:10.399Z,4.5
2022-12-12T03:02:22.029Z,5.5
2022-12-12T03:06:25.523Z,4.9
2022-12-12T03:08:12.054Z,4.6
2022-12-12T03:10:10.316Z,5.8
2022-12-12T03:12:08.298Z,6.7
2022-12-12T03:14:11.759Z,5.9
2022-12-12T03:16:13.417Z,6.3
2022-12-12T03:18:12.501Z,5.4
2022-12-12T03:20:11.259Z,6.6
2022-12-12T03:22:09.829Z,6.0
2022-12-12T03:24:09.197Z,7.8
2022-12-12T03:26:09.877Z,6.8
2022-12-12T03:28:09.649Z,7.3
2022-12-12T03:30:09.594Z,10.4
2022-12-12T03:32:08.716Z,9.4
2022-12-12T03:34:08.322Z,14.6
2022-12-12T03:36:10.083Z,19.5
2022-12-12T03:38:08.788Z,24.5
2022-12-12T03:40:08.098Z,13.6
2022-12-12T03:42:09.752Z,16.9
2022-12-12T03:44:09.417Z,11.7
2022-12-12T03:46:09.658Z,12.2
2022-12-12T03:48:09.784Z,10.0
2022-12-12T03:50:08.411Z,9.6
2022-12-12T03:52:09.829Z,9.5
2022-12-12T03:54:09.601Z,8.3
2022-12-12T03:56:08.300Z,7.3
2022-12-12T03:58:09.994Z,6.8
2022-12-12T04:00:07.672Z,5.7
2022-12-12T04:02:10.203Z,6.1
2022-12-12T04:04:12.586Z,6.8
2022-12-12T04:06:19.687Z,6.4
2022-12-12T04:08:08.814Z,5.9
2022-12-12T04:10:13.106Z,6.0
2022-12-12T04:12:20.941Z,5.2
2022-12-12T04:14:17.335Z,6.2
2022-12-12T04:16:07.029Z,6.0
2022-12-12T04:18:14.144Z,5.5
2022-12-12T04:20:18.752Z,5.5
2022-12-12T04:22:19.654Z,6.0
2022-12-12T04:24:16.837Z,6.8
2022-12-12T04:26:18.089Z,5.9
2022-12-12T04:28:07.253Z,5.6
2022-12-12T04:30:06.719Z,6.8
2022-12-12T04:32:14.033Z,5.6
2022-12-12T04:34:10.457Z,7.0
2022-12-12T04:36:04.184Z,8.2
2022-12-12T04:38:06.526Z,9.7
2022-12-12T04:40:07.407Z,5.9
2022-12-12T04:42:06.628Z,6.2
2022-12-12T04:44:05.608Z,6.3
2022-12-12T04:46:07.480Z,7.7
2022-12-12T04:48:06.312Z,5.5
2022-12-12T04:50:03.751Z,5.5
2022-12-12T04:52:06.333Z,4.9
2022-12-12T04:54:10.493Z,4.3
2022-12-12T04:56:08.781Z,4.2
2022-12-12T04:58:06.995Z,4.2
2022-12-12T05:00:03.103Z,4.0
2022-12-12T05:02:15.201Z,5.0
2022-12-12T05:04:10.181Z,5.0
2022-12-12T05:06:08.319Z,4.1
2022-12-12T05:08:09.861Z,3.5
2022-12-12T05:10:05.547Z,4.4
2022-12-12T05:12:03.587Z,2.6
2022-12-12T05:14:03.167Z,3.3
2022-12-12T05:16:10.668Z,3.3
2022-12-12T05:18:08.112Z,2.9
2022-12-12T05:20:02.964Z,3.0
2022-12-12T05:22:03.672Z,3.2
2022-12-12T05:24:03.754Z,3.2
2022-12-12T05:26:08.079Z,3.1
2022-12-12T05:28:03.670Z,3.8
2022-12-12T05:30:03.194Z,2.9
2022-12-12T05:32:02.934Z,2.5
2022-12-12T05:34:03.642Z,2.6
2022-12-12T05:36:03.151Z,3.4
2022-12-12T05:38:03.782Z,2.7
2022-12-12T05:40:04.222Z,2.4
2022-12-12T05:42:03.720Z,3.3
2022-12-12T05:44:02.939Z,2.9
2022-12-12T05:46:04.091Z,1.9
2022-12-12T05:48:03.683Z,2.8
2022-12-12T05:50:02.943Z,2.2
2022-12-12T05:52:04.147Z,2.3
2022-12-12T05:54:03.693Z,2.3
2022-12-12T05:56:02.934Z,2.3
2022-12-12T05:58:03.232Z,3.2
2022-12-12T06:00:04.421Z,3.2
2022-12-12T06:02:03.079Z,3.4
2022-12-12T06:04:03.183Z,2.7
2022-12-12T06:06:03.630Z,3.2
2022-12-12T06:08:02.976Z,2.7
2022-12-12T06:10:03.124Z,3.1
2022-12-12T06:12:03.889Z,3.2
2022-12-12T06:14:02.939Z,2.7
2022-12-12T06:16:07.914Z,2.2
2022-12-12T06:18:03.120Z,3.3
2022-12-12T06:20:04.872Z,2.6
2022-12-12T06:22:02.947Z,3.1
2022-12-12T06:24:05.178Z,3.9
2022-12-12T06:26:02.970Z,3.0
2022-12-12T06:28:02.942Z,3.5
2022-12-12T06:30:04.170Z,3.6
2022-12-12T06:32:03.388Z,3.1
2022-12-12T06:34:03.458Z,3.1
2022-12-12T06:36:06.717Z,2.9
2022-12-12T06:38:02.959Z,3.0
2022-12-12T06:40:04.597Z,3.9
2022-12-12T06:42:03.906Z,4.1
2022-12-12T06:44:03.975Z,3.3
2022-12-12T06:46:06.101Z,3.5
2022-12-12T06:48:02.886Z,3.3
2022-12-12T06:50:02.732Z,3.8
2022-12-12T06:52:03.572Z,3.6
2022-12-12T06:54:03.840Z,3.7
2022-12-12T06:56:06.188Z,4.0
2022-12-12T06:58:02.867Z,3.7
2022-12-12T07:00:04.597Z,3.6
2022-12-12T07:02:03.011Z,4.7
2022-12-12T07:04:04.358Z,3.9
2022-12-12T07:06:03.397Z,4.2
2022-12-12T07:08:03.009Z,4.3
2022-12-12T07:10:02.892Z,4.2
2022-12-12T07:12:02.914Z,5.4
2022-12-12T07:14:05.169Z,5.8
2022-12-12T07:16:03.737Z,5.8
2022-12-12T07:18:03.147Z,6.5
2022-12-12T07:20:03.488Z,5.9
2022-12-12T07:22:07.417Z,9.2
2022-12-12T07:24:02.913Z,15.6
2022-12-12T07:26:05.721Z,13.9
2022-12-12T07:28:03.644Z,13.7
2022-12-12T07:30:04.002Z,10.9
2022-12-12T07:32:02.938Z,10.8
2022-12-12T07:34:02.909Z,8.1
2022-12-12T07:36:02.992Z,13.5
2022-12-12T07:38:04.252Z,10.9
2022-12-12T07:40:03.152Z,10.5
2022-12-12T07:42:03.957Z,9.1
2022-12-12T07:44:02.949Z,8.8
2022-12-12T07:46:06.152Z,6.5
2022-12-12T07:48:02.885Z,7.0
2022-12-12T07:50:03.131Z,7.9
2022-12-12T07:52:03.705Z,8.2
2022-12-12T07:54:03.139Z,10.7
2022-12-12T07:56:05.272Z,10.6
2022-12-12T07:58:02.896Z,9.2
2022-12-12T08:00:04.372Z,13.2
2022-12-12T08:02:03.710Z,15.1
2022-12-12T08:04:04.017Z,18.4
2022-12-12T08:06:04.893Z,20.9
2022-12-12T08:08:02.957Z,20.0
2022-12-12T08:10:03.805Z,20.1
2022-12-12T08:12:03.096Z,19.3
2022-12-12T08:14:05.876Z,19.5
2022-12-12T08:16:04.530Z,19.4
2022-12-12T08:18:03.146Z,15.6
2022-12-12T08:20:03.234Z,16.2
2022-12-12T08:22:03.042Z,14.8
2022-12-12T08:24:04.073Z,15.7
2022-12-12T08:26:05.790Z,13.1
2022-12-12T08:28:04.241Z,9.8
2022-12-12T08:30:04.031Z,8.3
2022-12-12T08:32:04.659Z,5.2
2022-12-12T08:34:03.157Z,5.3
2022-12-12T08:36:13.118Z,3.9
2022-12-12T08:38:03.604Z,3.0
2022-12-12T08:40:03.878Z,3.3
2022-12-12T08:42:03.845Z,2.7
2022-12-12T08:44:04.147Z,3.6
2022-12-12T08:46:04.956Z,3.7
2022-12-12T08:48:02.922Z,3.2
2022-12-12T08:50:03.975Z,4.7
2022-12-12T08:52:05.652Z,5.6
2022-12-12T08:54:03.089Z,5.3
2022-12-12T08:56:03.141Z,4.9
2022-12-12T08:58:02.913Z,5.0
2022-12-12T09:00:03.207Z,5.6
2022-12-12T09:02:03.027Z,4.8
2022-12-12T09:04:03.847Z,5.1
2022-12-12T09:06:05.198Z,7.9
2022-12-12T09:08:03.400Z,7.9
2022-12-12T09:10:04.388Z,8.8
2022-12-12T09:12:02.723Z,10.8
2022-12-12T09:14:03.402Z,11.9
2022-12-12T09:16:03.396Z,7.9
2022-12-12T09:18:04.273Z,5.3
2022-12-12T09:20:03.138Z,8.4
2022-12-12T09:22:03.903Z,8.6
2022-12-12T09:24:02.902Z,4.6
2022-12-12T09:26:06.853Z,3.5
2022-12-12T09:28:02.942Z,2.4
2022-12-12T09:30:04.373Z,2.6
2022-12-12T09:32:06.118Z,2.5
2022-12-12T09:34:03.477Z,2.4
2022-12-12T09:36:05.848Z,2.1
2022-12-12T09:38:07.078Z,2.1
2022-12-12T09:40:02.899Z,2.5
2022-12-12T09:42:11.364Z,3.2
2022-12-12T09:44:09.151Z,2.1
2022-12-12T09:46:05.868Z,2.1
2022-12-12T09:48:04.625Z,2.2
2022-12-12T09:50:17.340Z,2.1
2022-12-12T09:52:04.308Z,3.2
2022-12-12T09:54:04.021Z,2.1
2022-12-12T09:56:09.681Z,2.6
2022-12-12T09:58:15.198Z,2.8
2022-12-12T10:00:09.614Z,2.6
2022-12-12T10:02:16.161Z,3.3
2022-12-12T10:04:18.183Z,3.7
2022-12-12T10:06:36.104Z,2.8
2022-12-12T10:08:12.880Z,2.4
2022-12-12T10:10:13.132Z,2.3
2022-12-12T10:12:08.508Z,2.9
2022-12-12T10:14:06.675Z,2.5
2022-12-12T10:16:08.979Z,2.2
2022-12-12T10:18:10.244Z,2.2
2022-12-12T10:20:06.464Z,2.6
2022-12-12T10:22:08.974Z,2.5
2022-12-12T10:24:10.287Z,2.8
2022-12-12T10:26:07.697Z,2.2
2022-12-12T10:28:12.091Z,2.2
2022-12-12T10:30:15.991Z,2.5
2022-12-12T10:32:11.091Z,2.5
2022-12-12T10:34:12.418Z,2.8
2022-12-12T10:36:11.673Z,3.4
2022-12-12T10:38:15.674Z,2.6
2022-12-12T10:40:19.074Z,2.2
2022-12-12T10:42:12.705Z,2.6
2022-12-12T10:44:11.297Z,2.2
2022-12-12T10:46:22.045Z,2.3
2022-12-12T10:48:03.769Z,2.8
2022-12-12T10:50:17.653Z,2.5
2022-12-12T10:52:06.377Z,2.7
2022-12-12T10:54:12.023Z,2.7
2022-12-12T10:56:07.233Z,2.6
2022-12-12T10:58:05.636Z,3.1
2022-12-12T11:00:18.235Z,2.7
2022-12-12T11:02:10.800Z,3.0
2022-12-12T11:04:05.613Z,3.1
2022-12-12T11:06:07.260Z,4.3
2022-12-12T11:08:06.370Z,3.2
2022-12-12T11:10:06.569Z,3.2
2022-12-12T11:12:12.483Z,3.6
2022-12-12T11:14:13.525Z,3.1
2022-12-12T11:16:13.458Z,3.5
2022-12-12T11:18:06.306Z,3.7
2022-12-12T11:20:09.480Z,4.2
2022-12-12T11:22:05.430Z,2.9
2022-12-12T11:24:09.224Z,2.9
2022-12-12T11:26:07.006Z,2.8
2022-12-12T11:28:06.889Z,2.8
2022-12-12T11:30:07.655Z,2.7
2022-12-12T11:32:04.061Z,3.1
2022-12-12T11:34:06.608Z,4.4
2022-12-12T11:36:06.115Z,4.0
2022-12-12T11:38:05.913Z,3.5
2022-12-12T11:40:04.541Z,3.8
2022-12-12T11:42:06.509Z,3.3
2022-12-12T11:44:02.941Z,3.8
2022-12-12T11:46:07.654Z,4.0
2022-12-12T11:48:13.040Z,4.1
2022-12-12T11:50:09.342Z,4.8
2022-12-12T11:52:18.163Z,5.7
2022-12-12T11:54:05.656Z,7.4
2022-12-12T11:56:16.977Z,5.6
2022-12-12T11:58:14.982Z,5.6
2022-12-12T12:00:11.480Z,4.4
2022-12-12T12:02:16.325Z,4.9
2022-12-12T12:04:13.015Z,4.8
2022-12-12T12:06:21.980Z,4.3
2022-12-12T12:08:10.927Z,3.7
2022-12-12T12:10:09.701Z,4.6
2022-12-12T12:12:11.504Z,3.8
2022-12-12T12:14:21.012Z,4.8
2022-12-12T12:16:13.549Z,4.9
2022-12-12T12:18:22.487Z,5.4
2022-12-12T12:20:17.549Z,5.0
2022-12-12T12:22:13.401Z,4.6
2022-12-12T12:24:19.637Z,5.1
2022-12-12T12:26:10.306Z,5.2
2022-12-12T12:28:18.603Z,5.2
2022-12-12T12:30:16.166Z,5.0
2022-12-12T12:32:13.367Z,4.9
2022-12-12T12:34:13.737Z,5.3
2022-12-12T12:36:16.318Z,5.1
2022-12-12T12:38:17.887Z,7.9
2022-12-12T12:40:17.537Z,7.2
2022-12-12T12:42:19.141Z,6.6
2022-12-12T12:44:19.949Z,6.6
2022-12-12T12:46:13.663Z,7.8
2022-12-12T12:48:12.183Z,5.5
2022-12-12T12:50:14.044Z,7.0
2022-12-12T12:52:07.805Z,6.8
2022-12-12T12:54:07.007Z,8.5
2022-12-12T12:56:14.863Z,7.9
2022-12-12T12:58:06.909Z,6.7
2022-12-12T13:00:07.295Z,6.8
2022-12-12T13:02:13.202Z,7.6
2022-12-12T13:04:12.662Z,7.5
2022-12-12T13:06:08.895Z,8.4
2022-12-12T13:08:14.564Z,11.5
2022-12-12T13:10:09.517Z,7.0
2022-12-12T13:12:12.471Z,8.9
2022-12-12T13:14:13.765Z,9.8
2022-12-12T13:16:07.867Z,9.1
2022-12-12T13:18:05.158Z,8.5
2022-12-12T13:20:03.599Z,7.7
2022-12-12T13:22:09.325Z,6.1
2022-12-12T13:24:08.911Z,7.3
2022-12-12T13:26:10.163Z,6.9
2022-12-12T13:28:11.001Z,5.6
2022-12-12T13:30:06.895Z,7.4
2022-12-12T13:32:21.951Z,7.0
2022-12-12T13:34:05.381Z,7.0
2022-12-12T13:36:09.924Z,7.4
2022-12-12T13:38:04.931Z,7.4
2022-12-12T13:40:07.699Z,7.6
2022-12-12T13:42:05.525Z,5.5
2022-12-12T13:44:02.949Z,5.5
2022-12-12T13:46:22.053Z,7.3
2022-12-12T13:48:05.045Z,7.3
2022-12-12T13:50:06.864Z,6.6
2022-12-12T13:52:21.793Z,8.0
2022-12-12T13:54:21.934Z,7.0
2022-12-12T13:56:22.005Z,6.3
2022-12-12T13:58:16.080Z,6.3
2022-12-12T14:00:20.507Z,7.0
2022-12-12T14:02:14.022Z,7.0
2022-12-12T14:04:04.378Z,8.7
2022-12-12T14:06:12.132Z,7.5
2022-12-12T14:08:08.902Z,7.8
2022-12-12T14:10:18.937Z,10.1
2022-12-12T14:12:05.895Z,8.1
2022-12-12T14:14:09.192Z,9.4
2022-12-12T14:16:07.795Z,10.4
2022-12-12T14:18:04.087Z,9.2
2022-12-12T14:20:04.749Z,10.6
2022-12-12T14:22:03.261Z,7.5
2022-12-12T14:24:21.947Z,6.8
2022-12-12T14:26:21.982Z,7.5
2022-12-12T14:28:16.006Z,8.4
2022-12-12T14:30:17.776Z,8.6
2022-12-12T14:32:20.418Z,9.2
2022-12-12T14:34:13.831Z,9.7
2022-12-12T14:36:11.698Z,11.4
2022-12-12T14:38:19.300Z,12.6
2022-12-12T14:40:12.619Z,13.6
2022-12-12T14:42:06.810Z,13.2
2022-12-12T14:44:37.163Z,11.7
2022-12-12T14:46:04.158Z,16.3
2022-12-12T14:48:16.023Z,20.7
2022-12-12T14:50:11.689Z,24.1
2022-12-12T14:52:03.358Z,26.2
2022-12-12T14:54:04.857Z,26.9
2022-12-12T14:56:09.094Z,25.1
2022-12-12T14:58:03.027Z,21.1
2022-12-12T15:00:04.722Z,18.7
2022-12-12T15:02:16.338Z,17.3
2022-12-12T15:04:07.001Z,14.4
2022-12-12T15:06:22.222Z,12.0
2022-12-12T15:08:03.534Z,12.6
2022-12-12T15:10:02.996Z,8.7
2022-12-12T15:12:14.804Z,9.0
2022-12-12T15:14:04.558Z,10.4
2022-12-12T15:16:03.318Z,12.3
2022-12-12T15:18:03.764Z,13.5
2022-12-12T15:20:06.169Z,14.8
2022-12-12T15:22:03.514Z,14.9
2022-12-12T15:24:02.977Z,14.1
2022-12-12T15:26:03.587Z,12.4
2022-12-12T15:28:03.666Z,10.6
2022-12-12T15:30:10.784Z,13.1
2022-12-12T15:32:05.707Z,13.1
2022-12-12T15:34:02.930Z,11.5
2022-12-12T15:36:04.544Z,13.5
2022-12-12T15:38:10.112Z,18.9
2022-12-12T15:40:19.569Z,24.0
2022-12-12T15:42:03.044Z,26.7
2022-12-12T15:44:04.379Z,28.7
2022-12-12T15:46:13.488Z,29.2
2022-12-12T15:48:04.644Z,27.6
2022-12-12T15:50:10.319Z,30.0
2022-12-12T15:52:09.676Z,29.9
2022-12-12T15:54:03.399Z,28.5
2022-12-12T15:56:08.244Z,28.1
2022-12-12T15:58:03.871Z,25.8
2022-12-12T16:00:07.967Z,24.6
2022-12-12T16:02:19.400Z,21.6
2022-12-12T16:04:05.813Z,22.5
2022-12-12T16:06:14.448Z,19.1
2022-12-12T16:08:24.906Z,19.4
2022-12-12T16:10:15.455Z,23.5
2022-12-12T16:12:02.933Z,29.8
2022-12-12T16:14:04.232Z,25.0
2022-12-12T16:16:22.137Z,25.8
2022-12-12T16:18:07.009Z,26.3
2022-12-12T16:20:10.833Z,24.8
2022-12-12T16:22:05.675Z,26.8
2022-12-12T16:24:11.839Z,24.9
2022-12-12T16:26:02.938Z,21.0
2022-12-12T16:28:23.201Z,18.5
2022-12-12T16:30:04.168Z,20.1
2022-12-12T16:32:02.965Z,19.5
2022-12-12T16:34:04.151Z,22.3
2022-12-12T16:36:06.235Z,23.1
2022-12-12T16:38:13.057Z,24.3
2022-12-12T16:40:04.529Z,23.5
2022-12-12T16:42:02.933Z,19.7
2022-12-12T16:44:02.987Z,15.9
2022-12-12T16:46:03.525Z,12.7
2022-12-12T16:48:14.983Z,8.5
2022-12-12T16:50:03.144Z,7.5
2022-12-12T16:52:02.946Z,7.4
2022-12-12T16:54:02.914Z,6.6
2022-12-12T16:56:03.750Z,6.7
2022-12-12T16:58:03.603Z,6.4
2022-12-12T17:00:05.347Z,6.5
2022-12-12T17:02:04.776Z,6.9
2022-12-12T17:04:02.984Z,7.9
2022-12-12T17:06:02.959Z,6.6
2022-12-12T17:08:03.032Z,5.8
2022-12-12T17:10:02.896Z,5.6
2022-12-12T17:12:03.878Z,5.1
2022-12-12T17:14:03.749Z,6.3
2022-12-12T17:16:03.629Z,6.7
2022-12-12T17:18:03.830Z,5.8
2022-12-12T17:20:03.096Z,6.1
2022-12-12T17:22:03.010Z,5.4
2022-12-12T17:24:03.933Z,6.7
2022-12-12T17:26:05.079Z,6.4
2022-12-12T17:28:03.132Z,6.1
2022-12-12T17:30:03.983Z,5.7
2022-12-12T17:32:02.991Z,6.5
2022-12-12T17:34:04.761Z,6.6
2022-12-12T17:36:05.309Z,6.6
2022-12-12T17:38:03.613Z,8.0
2022-12-12T17:40:04.309Z,7.2
2022-12-12T17:42:02.979Z,6.6
2022-12-12T17:44:03.020Z,6.5
2022-12-12T17:46:05.599Z,6.2
2022-12-12T17:48:04.812Z,6.0
2022-12-12T17:50:03.612Z,6.0
2022-12-12T17:52:04.778Z,6.7
2022-12-12T17:54:03.000Z,6.6
2022-12-12T17:56:08.007Z,5.5
2022-12-12T17:58:02.935Z,5.7
2022-12-12T18:00:06.450Z,6.4
2022-12-12T18:02:05.456Z,5.6
2022-12-12T18:04:04.742Z,4.9
2022-12-12T18:06:03.554Z,5.1
2022-12-12T18:08:03.864Z,4.7
2022-12-12T18:10:04.286Z,4.9
2022-12-12T18:12:04.682Z,4.6
2022-12-12T18:14:07.016Z,5.0
2022-12-12T18:16:03.726Z,5.1
2022-12-12T18:18:02.928Z,4.7
2022-12-12T18:20:03.137Z,6.0
2022-12-12T18:22:03.392Z,5.3
2022-12-12T18:24:03.006Z,4.5
2022-12-12T18:26:05.705Z,4.5
2022-12-12T18:28:02.959Z,4.5
2022-12-12T18:30:02.894Z,4.2
2022-12-12T18:32:04.584Z,5.1
2022-12-12T18:34:03.645Z,4.1
2022-12-12T18:36:04.783Z,4.0
2022-12-12T18:38:04.100Z,4.4
2022-12-12T18:40:02.924Z,3.6
2022-12-12T18:42:02.911Z,3.3
2022-12-12T18:44:06.491Z,3.1
2022-12-12T18:46:05.435Z,4.2
2022-12-12T18:48:03.093Z,4.3
2022-12-12T18:50:03.135Z,3.7
2022-12-12T18:52:04.136Z,4.2
2022-12-12T18:54:10.872Z,3.5
2022-12-12T18:56:06.229Z,4.6
2022-12-12T18:58:03.640Z,3.3
2022-12-12T19:00:06.336Z,3.1
2022-12-12T19:02:03.217Z,3.6
2022-12-12T19:04:11.369Z,2.7
2022-12-12T19:06:06.509Z,3.3
2022-12-12T19:10:02.960Z,2.6
2022-12-12T19:12:03.856Z,2.4
2022-12-12T19:14:03.753Z,2.3
2022-12-12T19:16:05.847Z,2.4
2022-12-12T19:18:03.251Z,2.3
2022-12-12T19:20:02.939Z,2.6
2022-12-12T19:22:13.390Z,2.3
2022-12-12T19:24:04.445Z,2.3
2022-12-12T19:26:06.278Z,2.2
2022-12-12T19:28:03.454Z,2.3
2022-12-12T19:30:02.953Z,2.2
2022-12-12T19:32:02.908Z,2.1
2022-12-12T19:34:04.030Z,2.2
2022-12-12T19:36:10.393Z,2.3
2022-12-12T19:38:03.118Z,2.0
2022-12-12T19:40:03.488Z,1.9
2022-12-12T19:42:03.666Z,2.2
2022-12-12T19:44:04.378Z,1.9
2022-12-12T19:46:06.569Z,2.1
2022-12-12T19:48:03.095Z,2.0
2022-12-12T19:50:04.414Z,2.3
2022-12-12T19:52:02.934Z,2.0
2022-12-12T19:54:06.647Z,1.9
2022-12-12T19:56:02.933Z,2.1
2022-12-12T19:58:04.025Z,2.3
2022-12-12T20:00:04.253Z,2.5
2022-12-12T20:02:04.985Z,2.2
2022-12-12T20:04:06.907Z,2.5
2022-12-12T20:06:07.021Z,2.4
2022-12-12T20:08:03.531Z,2.2
2022-12-12T20:10:03.937Z,1.9
2022-12-12T20:12:03.710Z,2.0
2022-12-12T20:14:03.984Z,1.9
2022-12-12T20:16:08.680Z,1.7
2022-12-12T20:18:03.481Z,2.2
2022-12-12T20:20:04.079Z,1.9
2022-12-12T20:22:04.066Z,1.9
2022-12-12T20:24:03.974Z,1.9
2022-12-12T20:26:04.562Z,1.9
2022-12-12T20:28:03.221Z,1.7
2022-12-12T20:30:03.156Z,1.9
2022-12-12T20:32:02.969Z,1.7
2022-12-12T20:34:03.715Z,1.6
2022-12-12T20:36:05.355Z,2.0
2022-12-12T20:38:03.728Z,2.4
2022-12-12T20:40:03.118Z,2.6
2022-12-12T20:42:02.915Z,1.8
2022-12-12T20:44:04.454Z,1.7
2022-12-12T20:46:03.456Z,1.9
2022-12-12T20:48:07.600Z,1.8
2022-12-12T20:50:03.221Z,1.8
2022-12-12T20:52:03.088Z,2.1
2022-12-12T20:54:05.819Z,2.3
2022-12-12T20:56:09.217Z,1.8
2022-12-12T20:58:02.967Z,2.5
2022-12-12T21:00:03.618Z,1.8
2022-12-12T21:02:03.169Z,2.0
2022-12-12T21:04:06.023Z,2.0
2022-12-12T21:06:02.883Z,1.5
2022-12-12T21:08:03.069Z,2.3
2022-12-12T21:10:05.047Z,2.4
2022-12-12T21:12:03.124Z,2.2
2022-12-12T21:14:04.057Z,2.2
2022-12-12T21:16:09.875Z,1.9
2022-12-12T21:18:04.772Z,2.4
2022-12-12T21:20:06.551Z,2.4
2022-12-12T21:22:03.642Z,1.9
2022-12-12T21:24:04.532Z,2.0
2022-12-12T21:26:04.000Z,2.1
2022-12-12T21:28:03.003Z,2.3
2022-12-12T21:30:03.057Z,2.2
2022-12-12T21:32:03.150Z,2.0
2022-12-12T21:34:04.705Z,2.0
2022-12-12T21:36:05.160Z,2.0
2022-12-12T21:38:04.193Z,2.1
2022-12-12T21:40:02.951Z,2.5
2022-12-12T21:42:03.475Z,2.3
2022-12-12T21:44:02.895Z,2.2
2022-12-12T21:46:04.467Z,2.0
2022-12-12T21:48:03.157Z,2.3
2022-12-12T21:50:03.305Z,2.5
2022-12-12T21:52:06.016Z,2.3
2022-12-12T21:54:03.470Z,2.3
2022-12-12T21:56:05.005Z,2.2
2022-12-12T21:58:02.951Z,2.4
2022-12-12T22:00:03.942Z,2.2
2022-12-12T22:02:04.927Z,2.5
2022-12-12T22:04:02.991Z,2.4
2022-12-12T22:06:11.298Z,2.5
2022-12-12T22:08:02.961Z,2.6
2022-12-12T22:10:10.563Z,2.6
2022-12-12T22:12:04.410Z,2.7
2022-12-12T22:14:03.400Z,2.8
2022-12-12T22:16:05.762Z,2.5
2022-12-12T22:18:03.067Z,3.1
2022-12-12T22:20:02.897Z,3.1
2022-12-12T22:22:02.978Z,2.7
2022-12-12T22:24:04.121Z,2.7
2022-12-12T22:26:14.418Z,2.3
2022-12-12T22:28:02.917Z,2.3
2022-12-12T22:30:03.088Z,2.4
2022-12-12T22:32:02.924Z,2.2
2022-12-12T22:34:06.202Z,2.2
2022-12-12T22:36:04.334Z,2.2
2022-12-12T22:38:03.756Z,1.9
2022-12-12T22:40:03.065Z,2.0
2022-12-12T22:42:03.074Z,2.1
2022-12-12T22:44:05.411Z,1.9
2022-12-12T22:46:05.351Z,2.4
2022-12-12T22:48:02.897Z,1.9
2022-12-12T22:50:03.170Z,2.5
2022-12-12T22:52:03.064Z,2.0
2022-12-12T22:54:05.569Z,1.9
2022-12-12T22:56:02.957Z,1.9
2022-12-12T22:58:03.776Z,1.9
2022-12-12T23:00:03.942Z,1.9
2022-12-12T23:02:03.767Z,1.7
2022-12-12T23:04:03.636Z,1.8
2022-12-12T23:06:06.472Z,1.9
2022-12-12T23:08:03.556Z,1.9
2022-12-12T23:10:03.106Z,1.9
2022-12-12T23:12:02.963Z,2.0
2022-12-12T23:14:07.465Z,2.0
2022-12-12T23:16:09.187Z,2.2
2022-12-12T23:18:02.691Z,2.0
2022-12-12T23:20:04.065Z,2.1
2022-12-12T23:22:02.905Z,2.2
2022-12-12T23:24:04.856Z,2.5
2022-12-12T23:26:04.134Z,2.5
2022-12-12T23:28:03.915Z,2.7
2022-12-12T23:30:03.102Z,1.9
2022-12-12T23:32:03.112Z,1.9
2022-12-12T23:34:05.900Z,1.8
2022-12-12T23:36:03.903Z,1.6
2022-12-12T23:38:02.925Z,1.7
2022-12-12T23:40:04.866Z,1.6
2022-12-12T23:42:02.900Z,1.8
2022-12-12T23:44:04.228Z,1.8
2022-12-12T23:46:04.828Z,2.1
2022-12-12T23:48:03.224Z,1.9
2022-12-12T23:50:02.921Z,1.7
2022-12-12T23:52:03.314Z,2.3
2022-12-12T23:54:06.144Z,4.1
2022-12-12T23:56:05.488Z,7.8
2022-12-12T23:58:02.920Z,7.2
